createdAt,value
2019-04-04T00:00:21.144Z,-946.31
2019-04-04T00:01:21.542Z,-945.44
2019-04-04T00:02:21.847Z,-946.71
2019-04-04T00:03:22.227Z,-943.32
2019-04-04T00:04:22.722Z,-946.00
2019-04-04T00:05:25.586Z,-947.22
2019-04-04T00:06:24.984Z,-942.61
2019-04-04T00:07:23.639Z,-943.84
2019-04-04T00:08:24.016Z,-947.23
2019-04-04T00:09:24.369Z,-944.41
2019-04-04T00:10:27.615Z,-949.14
2019-04-04T00:11:25.104Z,-946.03
2019-04-04T00:12:25.427Z,-944.06
2019-04-04T00:13:25.801Z,-945.85
2019-04-04T00:14:26.186Z,-889.65
2019-04-04T00:15:26.479Z,-945.57
2019-04-04T00:16:26.860Z,-937.39
2019-04-04T00:17:27.179Z,-935.17
2019-04-04T00:18:27.966Z,-943.65
2019-04-04T00:19:29.823Z,-949.33
2019-04-04T00:20:31.502Z,-942.06
2019-04-04T00:21:28.656Z,-947.59
2019-04-04T00:22:29.070Z,-944.03
2019-04-04T00:23:29.293Z,-949.85
2019-04-04T00:24:29.677Z,-942.31
2019-04-04T00:25:30.046Z,-942.50
2019-04-04T00:26:30.407Z,-946.00
2019-04-04T00:27:30.760Z,-951.81
2019-04-04T00:28:31.101Z,-951.67
2019-04-04T00:29:31.455Z,-947.95
2019-04-04T00:30:31.855Z,-946.12
2019-04-04T00:31:32.200Z,-947.71
2019-04-04T00:32:32.517Z,-943.32
2019-04-04T00:33:32.878Z,-943.64
2019-04-04T00:34:33.240Z,-945.39
2019-04-04T00:35:33.555Z,-947.16
2019-04-04T00:36:34.600Z,-946.97
2019-04-04T00:37:35.866Z,-940.06
2019-04-04T00:38:35.981Z,-948.38
2019-04-04T00:39:34.978Z,-940.72
2019-04-04T00:40:35.325Z,-946.09
2019-04-04T00:41:35.715Z,-946.12
2019-04-04T00:42:36.029Z,-943.27
2019-04-04T00:43:36.378Z,-942.44
2019-04-04T00:44:36.753Z,-944.33
2019-04-04T00:45:37.088Z,-944.53
2019-04-04T00:46:37.496Z,-941.33
2019-04-04T00:47:37.890Z,-943.85
2019-04-04T00:48:38.147Z,-890.51
2019-04-04T00:49:38.516Z,-889.06
2019-04-04T00:50:38.849Z,-891.64
2019-04-04T00:51:39.647Z,-886.93
2019-04-04T00:52:40.922Z,-891.00
2019-04-04T00:53:42.724Z,-887.41
2019-04-04T00:54:40.275Z,-888.60
2019-04-04T00:55:40.731Z,-890.25
2019-04-04T00:56:40.971Z,-888.63
2019-04-04T00:57:41.340Z,-886.58
2019-04-04T00:58:41.668Z,-890.43
2019-04-04T00:59:42.049Z,-893.07
2019-04-04T01:00:42.382Z,-890.68
2019-04-04T01:01:42.755Z,-895.31
2019-04-04T01:02:43.123Z,-888.30
2019-04-04T01:03:43.518Z,-893.53
2019-04-04T01:04:43.793Z,-894.11
2019-04-04T01:05:44.147Z,-888.90
2019-04-04T01:06:44.503Z,-892.10
2019-04-04T01:07:45.077Z,-892.25
2019-04-04T01:08:45.187Z,-896.29
2019-04-04T01:09:45.901Z,-898.44
2019-04-04T01:10:45.896Z,-892.47
2019-04-04T01:11:46.312Z,-885.92
2019-04-04T01:12:46.597Z,-888.26
2019-04-04T01:13:46.949Z,-895.32
2019-04-04T01:14:47.288Z,-891.88
2019-04-04T01:15:47.626Z,-896.05
2019-04-04T01:16:48.011Z,-899.21
2019-04-04T01:17:48.359Z,-894.46
2019-04-04T01:18:48.725Z,-900.34
2019-04-04T01:19:49.764Z,-894.09
2019-04-04T01:20:50.397Z,-896.99
2019-04-04T01:21:52.989Z,-894.99
2019-04-04T01:22:50.124Z,-895.72
2019-04-04T01:23:50.467Z,-899.12
2019-04-04T01:24:50.838Z,-897.17
2019-04-04T01:25:51.172Z,-894.55
2019-04-04T01:26:51.510Z,-897.46
2019-04-04T01:27:51.922Z,-897.94
2019-04-04T01:28:52.358Z,-896.50
2019-04-04T01:29:52.632Z,-898.46
2019-04-04T01:30:52.952Z,-898.18
2019-04-04T01:31:53.306Z,-893.31
2019-04-04T01:32:53.720Z,-895.68
2019-04-04T01:33:54.039Z,-896.53
2019-04-04T01:34:54.413Z,-897.13
2019-04-04T01:35:54.743Z,-895.54
2019-04-04T01:36:56.321Z,-898.40
2019-04-04T01:37:56.114Z,-896.44
2019-04-04T01:38:55.799Z,-895.79
2019-04-04T01:39:56.163Z,-894.74
2019-04-04T01:40:56.502Z,-891.78
2019-04-04T01:41:56.833Z,-893.13
2019-04-04T01:42:57.236Z,-895.55
2019-04-04T01:44:04.956Z,-894.71
2019-04-04T01:44:59.004Z,-895.35
2019-04-04T01:45:58.255Z,-893.53
2019-04-04T01:46:58.621Z,-898.19
2019-04-04T01:47:58.986Z,-899.69
2019-04-04T01:48:59.325Z,-897.71
2019-04-04T01:49:59.694Z,-894.39
2019-04-04T01:51:00.030Z,-895.28
2019-04-04T01:52:00.384Z,-889.45
2019-04-04T01:53:00.782Z,-894.88
2019-04-04T01:54:01.648Z,-895.88
2019-04-04T01:55:03.283Z,-897.10
2019-04-04T01:56:01.776Z,-890.99
2019-04-04T01:57:02.136Z,-896.19
2019-04-04T01:58:02.502Z,-893.87
2019-04-04T01:59:02.857Z,-887.18
2019-04-04T02:00:03.197Z,-889.37
2019-04-04T02:01:03.582Z,-884.38
2019-04-04T02:02:03.956Z,-882.46
2019-04-04T02:03:04.264Z,-885.85
2019-04-04T02:04:04.597Z,-893.88
2019-04-04T02:05:04.950Z,-892.68
2019-04-04T02:06:05.327Z,-896.31
2019-04-04T02:07:05.655Z,-891.72
2019-04-04T02:08:06.024Z,-892.68
2019-04-04T02:09:06.373Z,-891.26
2019-04-04T02:10:06.838Z,-890.71
2019-04-04T02:11:07.059Z,-889.27
2019-04-04T02:12:07.827Z,-894.86
2019-04-04T02:13:09.687Z,-894.71
2019-04-04T02:14:08.146Z,-895.52
2019-04-04T02:15:08.484Z,-891.88
2019-04-04T02:16:08.800Z,-895.31
2019-04-04T02:17:09.172Z,-893.98
2019-04-04T02:18:09.625Z,-893.34
2019-04-04T02:19:09.875Z,-899.51
2019-04-04T02:20:10.232Z,-895.63
2019-04-04T02:21:10.552Z,-897.51
2019-04-04T02:22:10.921Z,-894.59
2019-04-04T02:23:11.297Z,-896.83
2019-04-04T02:24:11.638Z,-891.59
2019-04-04T02:25:11.996Z,-885.50
2019-04-04T02:26:12.341Z,-890.64
2019-04-04T02:27:12.650Z,-890.24
2019-04-04T02:28:13.040Z,-889.10
2019-04-04T02:29:13.398Z,-892.12
2019-04-04T02:30:16.040Z,-894.58
2019-04-04T02:31:14.081Z,-893.32
2019-04-04T02:32:14.431Z,-891.81
2019-04-04T02:33:14.799Z,-887.89
2019-04-04T02:34:15.212Z,-881.42
2019-04-04T02:35:15.509Z,-887.96
2019-04-04T02:36:16.723Z,-890.72
2019-04-04T02:37:16.221Z,-885.01
2019-04-04T02:38:16.578Z,-893.22
2019-04-04T02:39:16.924Z,-889.34
2019-04-04T02:40:17.315Z,-892.81
2019-04-04T02:41:17.676Z,-889.74
2019-04-04T02:42:21.116Z,-892.64
2019-04-04T02:43:18.447Z,-892.58
2019-04-04T02:44:18.718Z,-892.22
2019-04-04T02:45:19.060Z,-894.72
2019-04-04T02:46:19.428Z,-882.57
2019-04-04T02:47:19.761Z,-879.29
2019-04-04T02:48:23.419Z,-885.61
2019-04-04T02:49:20.464Z,-886.25
2019-04-04T02:50:20.797Z,-891.74
2019-04-04T02:51:21.314Z,-884.45
2019-04-04T02:52:21.553Z,-886.96
2019-04-04T02:53:26.635Z,-884.19
2019-04-04T02:54:24.618Z,-885.59
2019-04-04T02:55:22.618Z,-891.00
2019-04-04T02:56:22.990Z,-894.43
2019-04-04T02:57:23.322Z,-893.31
2019-04-04T02:58:23.687Z,-892.62
2019-04-04T02:59:24.047Z,-893.31
2019-04-04T03:00:26.728Z,-898.90
2019-04-04T03:01:24.729Z,-891.04
2019-04-04T03:02:25.110Z,-895.66
2019-04-04T03:03:25.437Z,-896.24
2019-04-04T03:04:25.794Z,-888.94
2019-04-04T03:05:26.138Z,-890.01
2019-04-04T03:06:26.476Z,-895.49
2019-04-04T03:07:29.905Z,-896.62
2019-04-04T03:08:27.192Z,-895.26
2019-04-04T03:09:27.534Z,-896.69
2019-04-04T03:10:27.873Z,-894.15
2019-04-04T03:11:28.244Z,-892.97
2019-04-04T03:12:28.570Z,-897.51
2019-04-04T03:13:31.619Z,-889.70
2019-04-04T03:14:29.308Z,-887.26
2019-04-04T03:15:29.670Z,-888.86
2019-04-04T03:16:30.057Z,-884.88
2019-04-04T03:17:31.910Z,-884.67
2019-04-04T03:18:30.711Z,-880.37
2019-04-04T03:19:31.055Z,-877.79
2019-04-04T03:20:31.404Z,-888.64
2019-04-04T03:21:31.776Z,-896.65
2019-04-04T03:22:32.103Z,-888.74
2019-04-04T03:23:33.828Z,-888.14
2019-04-04T03:24:32.929Z,-892.08
2019-04-04T03:25:33.187Z,-889.67
2019-04-04T03:26:33.529Z,-888.05
2019-04-04T03:27:33.878Z,-895.32
2019-04-04T03:28:34.224Z,-891.70
2019-04-04T03:29:37.297Z,-891.45
2019-04-04T03:30:34.954Z,-875.79
2019-04-04T03:31:37.504Z,-873.72
2019-04-04T03:32:35.734Z,-876.79
2019-04-04T03:33:35.968Z,-885.92
2019-04-04T03:34:36.343Z,-875.40
2019-04-04T03:35:36.693Z,-877.41
2019-04-04T03:36:37.066Z,-883.69
2019-04-04T03:37:40.365Z,-880.42
2019-04-04T03:38:37.745Z,-878.79
2019-04-04T03:39:38.123Z,-868.83
2019-04-04T03:40:41.595Z,-864.29
2019-04-04T03:41:38.819Z,-871.03
2019-04-04T03:42:43.573Z,-874.50
2019-04-04T03:43:39.514Z,-872.58
2019-04-04T03:44:39.891Z,-874.87
2019-04-04T03:45:40.223Z,-882.43
2019-04-04T03:46:40.613Z,-885.85
2019-04-04T03:47:43.672Z,-888.89
2019-04-04T03:48:41.323Z,-888.72
2019-04-04T03:49:41.677Z,-888.99
2019-04-04T03:50:42.008Z,-885.58
2019-04-04T03:51:42.383Z,-881.16
2019-04-04T03:52:44.326Z,-872.90
2019-04-04T03:53:43.087Z,-884.60
2019-04-04T03:54:43.567Z,-880.89
2019-04-04T03:55:43.811Z,-876.55
2019-04-04T03:56:44.170Z,-869.10
2019-04-04T03:57:44.585Z,-869.47
2019-04-04T03:58:44.844Z,-863.55
2019-04-04T03:59:45.216Z,-876.08
2019-04-04T04:00:45.563Z,-865.65
2019-04-04T04:01:46.799Z,-873.76
2019-04-04T04:02:49.777Z,-876.83
2019-04-04T04:03:46.607Z,-874.66
2019-04-04T04:04:46.989Z,-871.08
2019-04-04T04:05:47.443Z,-877.80
2019-04-04T04:06:47.662Z,-872.53
2019-04-04T04:07:48.818Z,-884.49
2019-04-04T04:08:48.370Z,-880.31
2019-04-04T04:09:48.774Z,-876.07
2019-04-04T04:10:49.076Z,-880.86
2019-04-04T04:11:49.440Z,-877.89
2019-04-04T04:12:49.772Z,-865.31
2019-04-04T04:13:50.233Z,-872.61
2019-04-04T04:14:53.820Z,-878.73
2019-04-04T04:15:50.849Z,-876.17
2019-04-04T04:16:51.202Z,-852.66
2019-04-04T04:17:51.534Z,-872.59
2019-04-04T04:18:54.399Z,-866.05
2019-04-04T04:19:52.249Z,-865.86
2019-04-04T04:20:52.604Z,-878.71
2019-04-04T04:21:53.056Z,-863.54
2019-04-04T04:22:53.279Z,-874.54
2019-04-04T04:23:56.595Z,-872.55
2019-04-04T04:24:53.991Z,-863.92
2019-04-04T04:25:54.340Z,-859.01
2019-04-04T04:26:54.943Z,-859.21
2019-04-04T04:27:55.054Z,-868.58
2019-04-04T04:28:55.406Z,-870.42
2019-04-04T04:29:55.832Z,-868.96
2019-04-04T04:30:56.145Z,-867.05
2019-04-04T04:31:56.485Z,-865.48
2019-04-04T04:32:57.346Z,-873.34
2019-04-04T04:33:58.432Z,-871.39
2019-04-04T04:34:57.539Z,-855.92
2019-04-04T04:35:58.648Z,-837.17
2019-04-04T04:36:58.213Z,-830.81
2019-04-04T04:37:58.592Z,-864.11
2019-04-04T04:38:59.863Z,-852.52
2019-04-04T04:39:59.300Z,-847.10
2019-04-04T04:40:59.639Z,-856.62
2019-04-04T04:42:00.012Z,-863.26
2019-04-04T04:43:00.969Z,-843.30
2019-04-04T04:44:02.626Z,-833.70
2019-04-04T04:45:01.079Z,-858.54
2019-04-04T04:46:01.435Z,-851.78
2019-04-04T04:47:01.877Z,-841.80
2019-04-04T04:48:02.138Z,-829.05
2019-04-04T04:49:03.303Z,-856.94
2019-04-04T04:50:02.859Z,-852.30
2019-04-04T04:51:03.216Z,-847.33
2019-04-04T04:52:03.527Z,-844.25
2019-04-04T04:53:03.912Z,-862.05
2019-04-04T04:54:04.263Z,-866.90
2019-04-04T04:55:04.713Z,-843.95
2019-04-04T04:56:04.964Z,-846.52
2019-04-04T04:57:05.310Z,-855.60
2019-04-04T04:58:09.773Z,-863.10
2019-04-04T04:59:06.014Z,-847.52
2019-04-04T05:00:06.385Z,-855.36
2019-04-04T05:01:06.738Z,-865.21
2019-04-04T05:02:07.091Z,-864.09
2019-04-04T05:03:07.482Z,-868.94
2019-04-04T05:04:07.742Z,-859.76
2019-04-04T05:05:08.134Z,-924.91
2019-04-04T05:06:08.473Z,-924.90
2019-04-04T05:07:08.846Z,-924.00
2019-04-04T05:08:09.685Z,-921.09
2019-04-04T05:09:09.531Z,-931.52
2019-04-04T05:10:09.888Z,-934.29
2019-04-04T05:11:10.291Z,-935.48
2019-04-04T05:12:10.658Z,-926.84
2019-04-04T05:13:10.950Z,-931.75
2019-04-04T05:14:11.282Z,-920.55
2019-04-04T05:15:11.660Z,-921.68
2019-04-04T05:16:12.026Z,-917.28
2019-04-04T05:17:12.383Z,-902.41
2019-04-04T05:18:16.354Z,-904.11
2019-04-04T05:19:13.076Z,-918.80
2019-04-04T05:20:13.542Z,-908.77
2019-04-04T05:21:24.160Z,-916.93
2019-04-04T05:22:15.138Z,-917.27
2019-04-04T05:23:15.464Z,-874.25
2019-04-04T05:24:16.043Z,-862.75
2019-04-04T05:25:15.196Z,-862.66
2019-04-04T05:26:15.524Z,-857.49
2019-04-04T05:27:15.904Z,-861.54
2019-04-04T05:28:16.358Z,-869.91
2019-04-04T05:29:16.578Z,-866.65
2019-04-04T05:30:18.886Z,-865.52
2019-04-04T05:31:18.108Z,-865.78
2019-04-04T05:32:20.857Z,-874.71
2019-04-04T05:33:18.009Z,-864.91
2019-04-04T05:34:18.350Z,-845.97
2019-04-04T05:35:18.716Z,-844.53
2019-04-04T05:36:19.090Z,-821.10
2019-04-04T05:37:19.393Z,-831.19
2019-04-04T05:38:19.760Z,-837.65
2019-04-04T05:39:20.124Z,-828.43
2019-04-04T05:40:23.240Z,-851.58
2019-04-04T05:41:20.825Z,-859.07
2019-04-04T05:42:21.160Z,-861.84
2019-04-04T05:43:21.503Z,-863.72
2019-04-04T05:44:21.895Z,-862.76
2019-04-04T05:45:22.230Z,-873.26
2019-04-04T05:46:22.596Z,-864.83
2019-04-04T05:47:23.319Z,-862.38
2019-04-04T05:48:23.300Z,-868.43
2019-04-04T05:49:23.625Z,-862.97
2019-04-04T05:50:24.001Z,-867.99
2019-04-04T05:51:24.503Z,-867.41
2019-04-04T05:52:24.726Z,-873.46
2019-04-04T05:53:25.192Z,-864.48
2019-04-04T05:54:25.419Z,-863.80
2019-04-04T05:55:25.781Z,-856.48
2019-04-04T05:56:26.152Z,-868.88
2019-04-04T05:57:26.476Z,-862.82
2019-04-04T05:58:26.849Z,-868.75
2019-04-04T05:59:27.168Z,-876.29
2019-04-04T06:00:28.178Z,-871.70
2019-04-04T06:01:28.072Z,-865.63
2019-04-04T06:02:28.247Z,-871.11
2019-04-04T06:03:28.865Z,-868.49
2019-04-04T06:04:33.703Z,-862.10
2019-04-04T06:05:34.224Z,-864.61
2019-04-04T06:06:34.158Z,-880.22
2019-04-04T06:07:36.335Z,-875.47
2019-04-04T06:08:38.774Z,-870.96
2019-04-04T06:09:35.883Z,-869.21
2019-04-04T06:10:31.126Z,-878.03
2019-04-04T06:11:31.431Z,-862.60
2019-04-04T06:12:31.803Z,-872.17
2019-04-04T06:13:32.176Z,-874.67
2019-04-04T06:14:32.512Z,-868.99
2019-04-04T06:15:32.947Z,-871.20
2019-04-04T06:16:35.015Z,-862.93
2019-04-04T06:17:33.695Z,-870.59
2019-04-04T06:18:33.933Z,-872.47
2019-04-04T06:19:34.276Z,-868.72
2019-04-04T06:20:34.647Z,-867.72
2019-04-04T06:21:34.982Z,-880.50
2019-04-04T06:22:35.325Z,-880.97
2019-04-04T06:23:35.702Z,-879.33
2019-04-04T06:24:36.054Z,-879.14
2019-04-04T06:25:36.463Z,-874.73
2019-04-04T06:26:38.111Z,-870.77
2019-04-04T06:27:39.844Z,-864.41
2019-04-04T06:28:37.454Z,-866.41
2019-04-04T06:29:37.806Z,-873.62
2019-04-04T06:30:43.170Z,-865.50
2019-04-04T06:31:39.520Z,-868.81
2019-04-04T06:32:39.165Z,-871.75
2019-04-04T06:33:39.271Z,-873.14
2019-04-04T06:34:39.574Z,-867.86
2019-04-04T06:35:40.093Z,-874.50
2019-04-04T06:36:40.315Z,-860.49
2019-04-04T06:37:40.673Z,-871.22
2019-04-04T06:38:41.041Z,-869.10
2019-04-04T06:39:41.371Z,-880.32
2019-04-04T06:40:41.741Z,-877.71
2019-04-04T06:41:42.086Z,-868.36
2019-04-04T06:42:42.570Z,-861.24
2019-04-04T06:43:42.803Z,-876.15
2019-04-04T06:44:43.741Z,-886.07
2019-04-04T06:45:46.326Z,-875.57
2019-04-04T06:46:43.838Z,-884.50
2019-04-04T06:47:44.230Z,-880.71
2019-04-04T06:48:44.580Z,-882.77
2019-04-04T06:49:45.717Z,-882.87
2019-04-04T06:50:45.362Z,-877.23
2019-04-04T06:51:46.362Z,-881.05
2019-04-04T06:52:45.996Z,-886.61
2019-04-04T06:53:46.866Z,-881.81
2019-04-04T06:54:46.704Z,-874.01
2019-04-04T06:55:47.059Z,-857.19
2019-04-04T06:56:47.407Z,-856.21
2019-04-04T06:57:50.939Z,-837.39
2019-04-04T06:58:48.235Z,-878.52
2019-04-04T06:59:50.901Z,-876.15
2019-04-04T07:00:50.085Z,-881.16
2019-04-04T07:01:50.019Z,-889.26
2019-04-04T07:02:49.558Z,-881.75
2019-04-04T07:03:52.488Z,-881.90
2019-04-04T07:04:50.250Z,-889.31
2019-04-04T07:05:50.608Z,-891.12
2019-04-04T07:06:51.016Z,-888.42
2019-04-04T07:07:51.317Z,-883.51
2019-04-04T07:08:51.658Z,-890.07
2019-04-04T07:09:51.998Z,-886.92
2019-04-04T07:10:57.831Z,-890.72
2019-04-04T07:11:53.722Z,-884.15
2019-04-04T07:13:04.755Z,-885.62
2019-04-04T07:13:54.441Z,-865.09
2019-04-04T07:14:53.830Z,-879.13
2019-04-04T07:16:06.285Z,-888.44
2019-04-04T07:16:55.568Z,-882.78
2019-04-04T07:17:54.857Z,-834.17
2019-04-04T07:18:55.196Z,-852.67
2019-04-04T07:19:55.517Z,-872.71
2019-04-04T07:20:55.890Z,-870.06
2019-04-04T07:21:56.257Z,-873.23
2019-04-04T07:22:56.627Z,-875.42
2019-04-04T07:23:59.297Z,-879.03
2019-04-04T07:24:57.277Z,-879.55
2019-04-04T07:25:57.653Z,-882.29
2019-04-04T07:26:58.019Z,-883.59
2019-04-04T07:27:58.395Z,-886.99
2019-04-04T07:28:58.721Z,-869.56
2019-04-04T07:29:59.055Z,-882.14
2019-04-04T07:31:01.518Z,-887.72
2019-04-04T07:31:59.919Z,-875.47
2019-04-04T07:33:00.139Z,-885.01
2019-04-04T07:34:00.476Z,-854.79
2019-04-04T07:35:00.814Z,-856.51
2019-04-04T07:36:01.142Z,-855.70
2019-04-04T07:37:01.551Z,-871.24
2019-04-04T07:38:01.901Z,-883.91
2019-04-04T07:39:02.243Z,-873.20
2019-04-04T07:40:03.189Z,-892.74
2019-04-04T07:41:02.912Z,-891.53
2019-04-04T07:42:03.275Z,-882.25
2019-04-04T07:43:03.647Z,-881.10
2019-04-04T07:44:04.020Z,-883.40
2019-04-04T07:45:04.329Z,-887.41
2019-04-04T07:46:15.678Z,-882.90
2019-04-04T07:47:06.070Z,-885.94
2019-04-04T07:48:05.429Z,-878.27
2019-04-04T07:49:05.775Z,-879.27
2019-04-04T07:50:06.098Z,-882.44
2019-04-04T07:51:06.449Z,-882.45
2019-04-04T07:52:06.820Z,-868.40
2019-04-04T07:53:07.161Z,-869.21
2019-04-04T07:54:07.973Z,-874.44
2019-04-04T07:55:09.998Z,-890.29
2019-04-04T07:56:08.236Z,-879.05
2019-04-04T07:57:08.899Z,-878.73
2019-04-04T07:58:09.001Z,-885.11
2019-04-04T07:59:09.377Z,-888.05
2019-04-04T08:00:09.712Z,-886.54
2019-04-04T08:01:10.074Z,-896.55
2019-04-04T08:02:10.448Z,-884.02
2019-04-04T08:03:10.774Z,-888.07
2019-04-04T08:04:11.165Z,-870.82
2019-04-04T08:05:12.916Z,-885.62
2019-04-04T08:06:11.841Z,-878.79
2019-04-04T08:07:12.212Z,-873.74
2019-04-04T08:08:12.540Z,-887.41
2019-04-04T08:09:12.897Z,-868.93
2019-04-04T08:10:20.417Z,-881.84
2019-04-04T08:11:14.631Z,-890.87
2019-04-04T08:12:14.008Z,-881.03
2019-04-04T08:13:14.438Z,-886.40
2019-04-04T08:14:14.716Z,-872.14
2019-04-04T08:15:15.036Z,-872.30
2019-04-04T08:16:15.407Z,-870.15
2019-04-04T08:17:18.653Z,-881.57
2019-04-04T08:18:16.109Z,-882.28
2019-04-04T08:19:16.473Z,-881.12
2019-04-04T08:20:16.842Z,-880.19
2019-04-04T08:21:17.208Z,-891.32
2019-04-04T08:22:17.609Z,-879.62
2019-04-04T08:23:17.881Z,-887.82
2019-04-04T08:24:18.217Z,-884.09
2019-04-04T08:25:18.596Z,-879.95
2019-04-04T08:26:18.916Z,-904.47
2019-04-04T08:27:19.272Z,-893.90
2019-04-04T08:28:19.623Z,-889.10
2019-04-04T08:29:20.023Z,-894.70
2019-04-04T08:30:20.384Z,-884.84
2019-04-04T08:31:20.705Z,-885.79
2019-04-04T08:32:21.061Z,-872.39
2019-04-04T08:33:21.410Z,-869.72
2019-04-04T08:34:21.771Z,-873.74
2019-04-04T08:35:22.169Z,-877.93
2019-04-04T08:36:22.492Z,-879.04
2019-04-04T08:37:22.886Z,-852.96
2019-04-04T08:38:23.270Z,-884.33
2019-04-04T08:39:23.561Z,-877.77
2019-04-04T08:40:23.907Z,-876.69
2019-04-04T08:41:24.243Z,-877.50
2019-04-04T08:42:24.615Z,-880.15
2019-04-04T08:43:24.930Z,-884.60
2019-04-04T08:44:25.314Z,-877.37
2019-04-04T08:45:25.730Z,-887.65
2019-04-04T08:46:26.118Z,-883.69
2019-04-04T08:47:26.375Z,-870.44
2019-04-04T08:48:26.691Z,-877.66
2019-04-04T08:49:27.072Z,-872.51
2019-04-04T08:50:27.454Z,-875.61
2019-04-04T08:51:27.770Z,-866.51
2019-04-04T08:52:28.139Z,-875.46
2019-04-04T08:53:38.922Z,-873.99
2019-04-04T08:54:29.933Z,-884.75
2019-04-04T08:55:29.178Z,-868.55
2019-04-04T08:56:29.514Z,-866.58
2019-04-04T08:57:29.892Z,-863.57
2019-04-04T08:58:30.229Z,-877.15
2019-04-04T08:59:30.602Z,-883.69
2019-04-04T09:00:30.932Z,-873.38
2019-04-04T09:01:31.285Z,-870.00
2019-04-04T09:02:31.686Z,-870.19
2019-04-04T09:03:31.974Z,-881.25
2019-04-04T09:04:32.350Z,-870.40
2019-04-04T09:05:32.677Z,-870.33
2019-04-04T09:06:33.009Z,-877.09
2019-04-04T09:07:33.389Z,-863.07
2019-04-04T09:08:33.735Z,-870.99
2019-04-04T09:09:34.625Z,-884.59
2019-04-04T09:10:34.503Z,-871.18
2019-04-04T09:11:34.829Z,-886.86
2019-04-04T09:12:35.144Z,-882.65
2019-04-04T09:13:35.512Z,-883.31
2019-04-04T09:14:35.887Z,-880.08
2019-04-04T09:15:36.233Z,-837.94
2019-04-04T09:16:36.575Z,-828.52
2019-04-04T09:17:36.908Z,-859.59
2019-04-04T09:18:37.301Z,-859.86
2019-04-04T09:19:38.020Z,-863.32
2019-04-04T09:20:38.010Z,-874.97
2019-04-04T09:21:38.344Z,-876.63
2019-04-04T09:22:40.511Z,-877.79
2019-04-04T09:23:39.066Z,-893.79
2019-04-04T09:24:39.423Z,-883.78
2019-04-04T09:25:40.759Z,-885.59
2019-04-04T09:26:40.114Z,-882.10
2019-04-04T09:27:40.579Z,-881.37
2019-04-04T09:28:40.821Z,-880.94
2019-04-04T09:29:41.161Z,-882.84
2019-04-04T09:30:41.535Z,-868.80
2019-04-04T09:31:41.847Z,-878.61
2019-04-04T09:32:42.223Z,-877.21
2019-04-04T09:33:42.577Z,-860.18
2019-04-04T09:34:42.926Z,-868.17
2019-04-04T09:35:43.351Z,-877.13
2019-04-04T09:36:43.606Z,-888.67
2019-04-04T09:37:43.968Z,-871.90
2019-04-04T09:38:44.318Z,-868.73
2019-04-04T09:39:44.659Z,-862.77
2019-04-04T09:40:45.048Z,-878.39
2019-04-04T09:41:45.374Z,-886.46
2019-04-04T09:42:45.721Z,-883.71
2019-04-04T09:43:46.119Z,-863.74
2019-04-04T09:44:46.398Z,-876.47
2019-04-04T09:45:46.811Z,-879.96
2019-04-04T09:46:47.133Z,-884.34
2019-04-04T09:47:47.485Z,-873.31
2019-04-04T09:48:47.856Z,-879.32
2019-04-04T09:49:48.189Z,-868.47
2019-04-04T09:50:48.555Z,-874.83
2019-04-04T09:51:48.899Z,-875.55
2019-04-04T09:52:49.338Z,-865.54
2019-04-04T09:53:53.312Z,-869.57
2019-04-04T09:54:49.951Z,-884.37
2019-04-04T09:55:50.315Z,-875.04
2019-04-04T09:56:50.656Z,-860.28
2019-04-04T09:57:51.026Z,-850.03
2019-04-04T09:58:51.399Z,-872.43
2019-04-04T09:59:51.731Z,-884.79
2019-04-04T10:00:52.190Z,-879.51
2019-04-04T10:01:52.428Z,-866.97
2019-04-04T10:02:52.784Z,-868.74
2019-04-04T10:03:53.161Z,-883.28
2019-04-04T10:04:53.497Z,-892.57
2019-04-04T10:05:53.869Z,-864.30
2019-04-04T10:06:54.184Z,-886.12
2019-04-04T10:07:54.553Z,-871.58
2019-04-04T10:08:55.034Z,-874.58
2019-04-04T10:09:55.255Z,-886.58
2019-04-04T10:10:55.641Z,-875.69
2019-04-04T10:11:55.951Z,-880.99
2019-04-04T10:12:56.307Z,-880.75
2019-04-04T10:13:56.691Z,-886.83
2019-04-04T10:14:57.023Z,-867.14
2019-04-04T10:15:57.401Z,-873.91
2019-04-04T10:16:57.765Z,-875.89
2019-04-04T10:17:58.054Z,-875.98
2019-04-04T10:18:58.435Z,-871.32
2019-04-04T10:19:58.793Z,-896.42
2019-04-04T10:21:10.889Z,-887.78
2019-04-04T10:22:00.512Z,-866.63
2019-04-04T10:22:59.870Z,-867.29
2019-04-04T10:24:00.247Z,-880.46
2019-04-04T10:25:00.583Z,-866.44
2019-04-04T10:26:00.987Z,-871.41
2019-04-04T10:27:01.301Z,-871.21
2019-04-04T10:28:01.631Z,-865.29
2019-04-04T10:29:02.016Z,-878.48
2019-04-04T10:30:02.329Z,-871.54
2019-04-04T10:31:02.708Z,-873.80
2019-04-04T10:32:03.076Z,-881.35
2019-04-04T10:33:03.425Z,-875.54
2019-04-04T10:34:03.877Z,-874.64
2019-04-04T10:35:04.106Z,-838.08
2019-04-04T10:41:02.393Z,-720.96
2019-04-04T10:42:02.746Z,-882.55
2019-04-04T10:43:03.115Z,-880.76
2019-04-04T10:44:03.477Z,-869.42
2019-04-04T10:45:03.834Z,-866.02
2019-04-04T10:46:04.235Z,-870.78
2019-04-04T10:47:04.529Z,-870.99
2019-04-04T10:48:04.859Z,-877.27
2019-04-04T10:49:08.131Z,-873.11
2019-04-04T10:50:05.571Z,-872.10
2019-04-04T10:51:05.927Z,-863.71
2019-04-04T10:52:06.293Z,-877.94
2019-04-04T10:53:06.638Z,-877.84
2019-04-04T10:54:07.126Z,-880.05
2019-04-04T10:55:07.354Z,-887.45
2019-04-04T10:56:07.691Z,-875.18
2019-04-04T10:57:08.095Z,-857.51
2019-04-04T10:58:08.445Z,-798.15
2019-04-04T10:59:08.813Z,-837.69
2019-04-04T11:00:09.154Z,-869.29
2019-04-04T11:01:09.746Z,-867.81
2019-04-04T11:02:09.950Z,-875.89
2019-04-04T11:03:10.164Z,-858.84
2019-04-04T11:04:10.557Z,-871.00
2019-04-04T11:05:10.894Z,-863.51
2019-04-04T11:06:11.250Z,-891.05
2019-04-04T11:07:11.620Z,-879.94
2019-04-04T11:08:11.966Z,-880.29
2019-04-04T11:09:12.309Z,-869.13
2019-04-04T11:10:12.717Z,-864.38
2019-04-04T11:11:12.995Z,-875.23
2019-04-04T11:12:13.369Z,-867.24
2019-04-04T11:13:13.713Z,-860.58
2019-04-04T11:14:14.079Z,-888.00
2019-04-04T11:15:14.399Z,-872.43
2019-04-04T11:16:14.765Z,-864.08
2019-04-04T11:17:15.144Z,-872.26
2019-04-04T11:18:15.504Z,-860.88
2019-04-04T11:19:15.883Z,-878.85
2019-04-04T11:20:16.164Z,-874.98
2019-04-04T11:21:16.535Z,-873.15
2019-04-04T11:22:16.904Z,-868.64
2019-04-04T11:23:17.241Z,-889.65
2019-04-04T11:24:17.602Z,-870.40
2019-04-04T11:25:17.948Z,-870.04
2019-04-04T11:26:18.287Z,-874.35
2019-04-04T11:27:18.753Z,-866.73
2019-04-04T11:28:19.007Z,-863.99
2019-04-04T11:29:19.373Z,-859.80
2019-04-04T11:30:19.686Z,-859.68
2019-04-04T11:31:20.055Z,-849.77
2019-04-04T11:32:20.433Z,-869.23
2019-04-04T11:33:20.800Z,-866.62
2019-04-04T11:34:21.145Z,-855.84
2019-04-04T11:35:21.579Z,-834.18
2019-04-04T11:36:21.805Z,-831.72
2019-04-04T11:37:22.183Z,-842.50
2019-04-04T11:38:22.535Z,-838.75
2019-04-04T11:39:22.890Z,-840.90
2019-04-04T11:40:23.237Z,-860.06
2019-04-04T11:41:23.584Z,-867.34
2019-04-04T11:42:23.939Z,-857.31
2019-04-04T11:43:24.355Z,-875.53
2019-04-04T11:44:24.644Z,-869.14
2019-04-04T11:45:24.984Z,-880.99
2019-04-04T11:46:25.337Z,-879.58
2019-04-04T11:47:25.692Z,-847.13
2019-04-04T11:48:26.047Z,-878.91
2019-04-04T11:49:26.408Z,-886.60
2019-04-04T11:50:26.748Z,-863.39
2019-04-04T11:51:27.132Z,-888.77
2019-04-04T11:52:27.490Z,-844.99
2019-04-04T11:53:27.842Z,-851.57
2019-04-04T11:54:28.162Z,-873.97
2019-04-04T11:55:28.516Z,-861.18
2019-04-04T11:56:28.873Z,-849.44
2019-04-04T11:57:29.239Z,-844.44
2019-04-04T11:58:29.594Z,-847.96
2019-04-04T11:59:29.952Z,-887.99
2019-04-04T12:00:30.389Z,-854.62
2019-04-04T12:01:30.652Z,-848.33
2019-04-04T12:02:32.540Z,-864.21
2019-04-04T12:03:31.341Z,-871.57
2019-04-04T12:04:31.712Z,-840.14
2019-04-04T12:05:32.081Z,-859.17
2019-04-04T12:06:32.413Z,-859.09
2019-04-04T12:07:32.791Z,-873.38
2019-04-04T12:08:33.261Z,-858.29
2019-04-04T12:09:33.462Z,-862.57
2019-04-04T12:10:33.832Z,-856.49
2019-04-04T12:11:34.175Z,-862.93
2019-04-04T12:12:34.538Z,-851.53
2019-04-04T12:13:34.885Z,-870.31
2019-04-04T12:14:35.249Z,-871.03